sensor_id;sensor_type;location;lat;lon;timestamp;pressure;altitude;pressure_sealevel;temperature;humidity
55289;BME280;41154;45.394;5.734;2022-10-13T00:00:07;97566.78;;;9.72;100.00
55289;BME280;41154;45.394;5.734;2022-10-13T00:02:37;97571.47;;;9.77;100.00
55289;BME280;41154;45.394;5.734;2022-10-13T00:05:03;97569.81;;;9.64;100.00
55289;BME280;41154;45.394;5.734;2022-10-13T00:07:29;97567.47;;;9.56;100.00
55289;BME280;41154;45.394;5.734;2022-10-13T00:09:55;97572.59;;;9.57;100.00
55289;BME280;41154;45.394;5.734;2022-10-13T00:12:20;97570.41;;;9.66;100.00
55289;BME280;41154;45.394;5.734;2022-10-13T00:14:46;97565.72;;;9.61;100.00
55289;BME280;41154;45.394;5.734;2022-10-13T00:17:12;97560.75;;;9.77;100.00
55289;BME280;41154;45.394;5.734;2022-10-13T00:19:37;97558.31;;;9.75;100.00
55289;BME280;41154;45.394;5.734;2022-10-13T00:22:03;97560.06;;;9.81;100.00
55289;BME280;41154;45.394;5.734;2022-10-13T00:24:29;97566.69;;;9.67;100.00
55289;BME280;41154;45.394;5.734;2022-10-13T00:26:55;97562.81;;;9.63;100.00
55289;BME280;41154;45.394;5.734;2022-10-13T00:29:20;97554.78;;;9.51;100.00
55289;BME280;41154;45.394;5.734;2022-10-13T00:31:46;97558.94;;;9.47;100.00
55289;BME280;41154;45.394;5.734;2022-10-13T00:34:12;97574.88;;;9.42;100.00
55289;BME280;41154;45.394;5.734;2022-10-13T00:36:38;97576.19;;;9.51;100.00
55289;BME280;41154;45.394;5.734;2022-10-13T00:39:05;97575.97;;;9.64;100.00
55289;BME280;41154;45.394;5.734;2022-10-13T00:41:30;97583.09;;;9.59;100.00
55289;BME280;41154;45.394;5.734;2022-10-13T00:44:00;97585.63;;;9.53;100.00
55289;BME280;41154;45.394;5.734;2022-10-13T00:46:32;97577.97;;;9.57;100.00
55289;BME280;41154;45.394;5.734;2022-10-13T00:49:09;97583.41;;;9.50;100.00
55289;BME280;41154;45.394;5.734;2022-10-13T00:51:40;97582.97;;;9.65;100.00
55289;BME280;41154;45.394;5.734;2022-10-13T00:54:09;97586.72;;;9.76;100.00
55289;BME280;41154;45.394;5.734;2022-10-13T00:56:37;97582.75;;;9.67;100.00
55289;BME280;41154;45.394;5.734;2022-10-13T00:59:10;97584.97;;;9.70;100.00
55289;BME280;41154;45.394;5.734;2022-10-13T01:01:39;97580.31;;;9.65;100.00
55289;BME280;41154;45.394;5.734;2022-10-13T01:04:05;97573.09;;;9.78;100.00
55289;BME280;41154;45.394;5.734;2022-10-13T01:06:31;97576.47;;;9.73;100.00
55289;BME280;41154;45.394;5.734;2022-10-13T01:08:57;97572.66;;;9.81;100.00
55289;BME280;41154;45.394;5.734;2022-10-13T01:11:32;97577.53;;;9.84;100.00
55289;BME280;41154;45.394;5.734;2022-10-13T01:31:28;97564.63;;;10.04;100.00
55289;BME280;41154;45.394;5.734;2022-10-13T01:34:09;97561.47;;;9.84;100.00
55289;BME280;41154;45.394;5.734;2022-10-13T01:36:51;97560.97;;;9.63;100.00
55289;BME280;41154;45.394;5.734;2022-10-13T01:42:06;97556.22;;;9.77;100.00
55289;BME280;41154;45.394;5.734;2022-10-13T01:44:42;97561.56;;;9.65;100.00
55289;BME280;41154;45.394;5.734;2022-10-13T01:47:09;97555.16;;;9.66;100.00
55289;BME280;41154;45.394;5.734;2022-10-13T01:49:41;97560.97;;;9.63;100.00
55289;BME280;41154;45.394;5.734;2022-10-13T01:52:11;97557.00;;;9.54;100.00
55289;BME280;41154;45.394;5.734;2022-10-13T01:54:38;97555.81;;;9.50;100.00
55289;BME280;41154;45.394;5.734;2022-10-13T01:57:24;97557.91;;;9.60;100.00
55289;BME280;41154;45.394;5.734;2022-10-13T01:59:49;97555.84;;;9.62;100.00
55289;BME280;41154;45.394;5.734;2022-10-13T02:02:24;97554.94;;;10.03;100.00
55289;BME280;41154;45.394;5.734;2022-10-13T02:07:27;97546.97;;;9.61;100.00
55289;BME280;41154;45.394;5.734;2022-10-13T02:12:35;97550.72;;;9.60;100.00
55289;BME280;41154;45.394;5.734;2022-10-13T02:15:06;97547.81;;;9.62;100.00
55289;BME280;41154;45.394;5.734;2022-10-13T02:17:34;97558.03;;;9.53;100.00
55289;BME280;41154;45.394;5.734;2022-10-13T02:20:04;97551.03;;;9.52;100.00
55289;BME280;41154;45.394;5.734;2022-10-13T02:22:39;97563.50;;;9.58;100.00
55289;BME280;41154;45.394;5.734;2022-10-13T02:25:06;97547.94;;;9.67;100.00
55289;BME280;41154;45.394;5.734;2022-10-13T02:27:32;97547.50;;;9.94;100.00
55289;BME280;41154;45.394;5.734;2022-10-13T02:29:58;97551.91;;;10.00;100.00
55289;BME280;41154;45.394;5.734;2022-10-13T02:32:28;97557.63;;;9.92;100.00
55289;BME280;41154;45.394;5.734;2022-10-13T02:34:53;97542.13;;;9.82;100.00
55289;BME280;41154;45.394;5.734;2022-10-13T02:37:19;97548.88;;;9.73;100.00
55289;BME280;41154;45.394;5.734;2022-10-13T02:39:45;97550.03;;;9.77;100.00
55289;BME280;41154;45.394;5.734;2022-10-13T02:42:12;97553.63;;;9.70;100.00
55289;BME280;41154;45.394;5.734;2022-10-13T02:44:38;97549.56;;;9.68;100.00
55289;BME280;41154;45.394;5.734;2022-10-13T02:47:04;97550.94;;;9.70;100.00
55289;BME280;41154;45.394;5.734;2022-10-13T02:49:30;97551.88;;;9.64;100.00
55289;BME280;41154;45.394;5.734;2022-10-13T02:51:56;97553.50;;;9.65;100.00
55289;BME280;41154;45.394;5.734;2022-10-13T02:54:21;97557.34;;;9.58;100.00
55289;BME280;41154;45.394;5.734;2022-10-13T02:56:47;97551.31;;;9.62;100.00
55289;BME280;41154;45.394;5.734;2022-10-13T02:59:13;97547.53;;;9.51;100.00
55289;BME280;41154;45.394;5.734;2022-10-13T03:01:38;97549.38;;;9.39;100.00
55289;BME280;41154;45.394;5.734;2022-10-13T03:04:07;97551.44;;;9.25;100.00
55289;BME280;41154;45.394;5.734;2022-10-13T03:06:33;97551.47;;;9.37;100.00
55289;BME280;41154;45.394;5.734;2022-10-13T03:08:59;97551.31;;;9.20;100.00
55289;BME280;41154;45.394;5.734;2022-10-13T03:11:24;97551.06;;;9.22;100.00
55289;BME280;41154;45.394;5.734;2022-10-13T03:13:50;97543.63;;;9.24;100.00
55289;BME280;41154;45.394;5.734;2022-10-13T03:16:16;97547.16;;;9.36;100.00
55289;BME280;41154;45.394;5.734;2022-10-13T03:18:41;97544.84;;;9.40;100.00
55289;BME280;41154;45.394;5.734;2022-10-13T03:21:11;97544.06;;;9.21;100.00
55289;BME280;41154;45.394;5.734;2022-10-13T03:23:38;97544.47;;;9.24;100.00
55289;BME280;41154;45.394;5.734;2022-10-13T03:26:03;97534.78;;;9.23;100.00
55289;BME280;41154;45.394;5.734;2022-10-13T03:28:29;97535.59;;;9.24;100.00
55289;BME280;41154;45.394;5.734;2022-10-13T03:31:03;97533.06;;;9.29;100.00
55289;BME280;41154;45.394;5.734;2022-10-13T03:33:29;97530.16;;;9.30;100.00
55289;BME280;41154;45.394;5.734;2022-10-13T03:36:00;97530.97;;;9.31;100.00
55289;BME280;41154;45.394;5.734;2022-10-13T03:38:27;97532.22;;;9.28;100.00
55289;BME280;41154;45.394;5.734;2022-10-13T03:40:53;97538.03;;;9.25;100.00
55289;BME280;41154;45.394;5.734;2022-10-13T03:43:19;97540.09;;;9.42;100.00
55289;BME280;41154;45.394;5.734;2022-10-13T03:45:56;97538.94;;;9.49;100.00
55289;BME280;41154;45.394;5.734;2022-10-13T03:48:22;97539.97;;;9.48;100.00
55289;BME280;41154;45.394;5.734;2022-10-13T03:50:48;97542.25;;;9.33;100.00
55289;BME280;41154;45.394;5.734;2022-10-13T03:53:14;97537.41;;;9.42;100.00
55289;BME280;41154;45.394;5.734;2022-10-13T03:55:40;97541.13;;;9.41;100.00
55289;BME280;41154;45.394;5.734;2022-10-13T03:58:06;97540.53;;;9.39;100.00
55289;BME280;41154;45.394;5.734;2022-10-13T04:00:34;97548.63;;;9.20;100.00
55289;BME280;41154;45.394;5.734;2022-10-13T04:03:00;97551.00;;;9.10;100.00
55289;BME280;41154;45.394;5.734;2022-10-13T04:05:26;97540.25;;;9.28;100.00
55289;BME280;41154;45.394;5.734;2022-10-13T04:07:51;97539.84;;;9.43;100.00
55289;BME280;41154;45.394;5.734;2022-10-13T04:10:18;97539.81;;;9.31;100.00
55289;BME280;41154;45.394;5.734;2022-10-13T04:12:48;97531.06;;;9.24;100.00
55289;BME280;41154;45.394;5.734;2022-10-13T04:15:13;97526.63;;;9.18;100.00
55289;BME280;41154;45.394;5.734;2022-10-13T04:17:39;97532.00;;;9.18;100.00
55289;BME280;41154;45.394;5.734;2022-10-13T04:20:06;97527.66;;;9.17;100.00
55289;BME280;41154;45.394;5.734;2022-10-13T04:22:32;97525.91;;;9.11;100.00
55289;BME280;41154;45.394;5.734;2022-10-13T04:24:57;97526.03;;;9.16;100.00
55289;BME280;41154;45.394;5.734;2022-10-13T04:27:25;97526.19;;;9.21;100.00
55289;BME280;41154;45.394;5.734;2022-10-13T04:29:52;97518.91;;;9.10;100.00
55289;BME280;41154;45.394;5.734;2022-10-13T04:32:17;97523.91;;;9.06;100.00
55289;BME280;41154;45.394;5.734;2022-10-13T04:34:43;97528.69;;;9.16;100.00
55289;BME280;41154;45.394;5.734;2022-10-13T04:37:09;97531.16;;;9.17;100.00
55289;BME280;41154;45.394;5.734;2022-10-13T04:39:35;97532.78;;;9.18;100.00
55289;BME280;41154;45.394;5.734;2022-10-13T04:42:01;97530.00;;;9.13;100.00
55289;BME280;41154;45.394;5.734;2022-10-13T04:44:27;97520.53;;;9.11;100.00
55289;BME280;41154;45.394;5.734;2022-10-13T04:46:53;97521.59;;;9.10;100.00
55289;BME280;41154;45.394;5.734;2022-10-13T04:49:19;97524.25;;;9.10;100.00
55289;BME280;41154;45.394;5.734;2022-10-13T04:51:45;97524.53;;;9.20;100.00
55289;BME280;41154;45.394;5.734;2022-10-13T04:54:10;97528.69;;;9.16;100.00
55289;BME280;41154;45.394;5.734;2022-10-13T04:56:36;97520.41;;;9.06;100.00
55289;BME280;41154;45.394;5.734;2022-10-13T04:59:03;97528.69;;;9.04;100.00
55289;BME280;41154;45.394;5.734;2022-10-13T05:01:30;97528.69;;;9.16;100.00
55289;BME280;41154;45.394;5.734;2022-10-13T05:03:58;97525.31;;;9.09;100.00
55289;BME280;41154;45.394;5.734;2022-10-13T05:06:29;97529.31;;;9.18;100.00
55289;BME280;41154;45.394;5.734;2022-10-13T05:08:55;97532.56;;;9.20;100.00
55289;BME280;41154;45.394;5.734;2022-10-13T05:11:21;97527.44;;;9.18;100.00
55289;BME280;41154;45.394;5.734;2022-10-13T05:13:48;97526.41;;;9.20;100.00
55289;BME280;41154;45.394;5.734;2022-10-13T05:16:15;97525.91;;;9.11;100.00
55289;BME280;41154;45.394;5.734;2022-10-13T05:18:42;97523.69;;;9.08;100.00
55289;BME280;41154;45.394;5.734;2022-10-13T05:21:11;97530.63;;;8.97;100.00
55289;BME280;41154;45.394;5.734;2022-10-13T05:23:38;97520.91;;;8.84;100.00
55289;BME280;41154;45.394;5.734;2022-10-13T05:26:07;97516.69;;;8.76;100.00
55289;BME280;41154;45.394;5.734;2022-10-13T05:28:34;97523.75;;;8.71;100.00
55289;BME280;41154;45.394;5.734;2022-10-13T05:33:40;97531.75;;;8.71;100.00
55289;BME280;41154;45.394;5.734;2022-10-13T05:36:14;97539.19;;;8.87;100.00
55289;BME280;41154;45.394;5.734;2022-10-13T05:38:41;97542.31;;;8.84;100.00
55289;BME280;41154;45.394;5.734;2022-10-13T05:41:11;97549.69;;;9.00;100.00
55289;BME280;41154;45.394;5.734;2022-10-13T05:43:39;97552.03;;;8.97;100.00
55289;BME280;41154;45.394;5.734;2022-10-13T05:46:05;97551.44;;;8.95;100.00
55289;BME280;41154;45.394;5.734;2022-10-13T05:48:35;97555.28;;;8.99;100.00
55289;BME280;41154;45.394;5.734;2022-10-13T05:51:10;97546.78;;;9.02;100.00
55289;BME280;41154;45.394;5.734;2022-10-13T05:53:40;97542.13;;;9.28;100.00
55289;BME280;41154;45.394;5.734;2022-10-13T05:56:11;97531.72;;;9.08;100.00
55289;BME280;41154;45.394;5.734;2022-10-13T05:58:43;97529.75;;;9.15;100.00
55289;BME280;41154;45.394;5.734;2022-10-13T06:01:13;97528.75;;;8.97;100.00
55289;BME280;41154;45.394;5.734;2022-10-13T06:03:41;97527.69;;;8.87;100.00
55289;BME280;41154;45.394;5.734;2022-10-13T06:06:09;97515.78;;;8.82;100.00
55289;BME280;41154;45.394;5.734;2022-10-13T06:08:35;97518.78;;;9.05;100.00
55289;BME280;41154;45.394;5.734;2022-10-13T06:11:02;97517.00;;;8.98;100.00
55289;BME280;41154;45.394;5.734;2022-10-13T06:13:28;97520.44;;;9.17;100.00
55289;BME280;41154;45.394;5.734;2022-10-13T06:15:54;97513.31;;;8.99;100.00
55289;BME280;41154;45.394;5.734;2022-10-13T06:18:20;97512.28;;;9.12;100.00
55289;BME280;41154;45.394;5.734;2022-10-13T06:20:45;97515.38;;;8.97;100.00
55289;BME280;41154;45.394;5.734;2022-10-13T06:23:14;97513.75;;;8.96;100.00
55289;BME280;41154;45.394;5.734;2022-10-13T06:25:47;97511.31;;;9.07;100.00
55289;BME280;41154;45.394;5.734;2022-10-13T06:28:13;97500.63;;;9.07;100.00
55289;BME280;41154;45.394;5.734;2022-10-13T06:30:38;97497.25;;;9.11;100.00
55289;BME280;41154;45.394;5.734;2022-10-13T06:33:04;97498.25;;;8.87;100.00
55289;BME280;41154;45.394;5.734;2022-10-13T06:35:31;97501.00;;;9.10;100.00
55289;BME280;41154;45.394;5.734;2022-10-13T06:37:57;97500.78;;;9.12;100.00
55289;BME280;41154;45.394;5.734;2022-10-13T06:40:23;97515.25;;;9.23;100.00
55289;BME280;41154;45.394;5.734;2022-10-13T06:42:49;97523.16;;;9.29;100.00
55289;BME280;41154;45.394;5.734;2022-10-13T06:45:16;97527.31;;;9.67;100.00
55289;BME280;41154;45.394;5.734;2022-10-13T06:47:42;97522.84;;;9.38;100.00
55289;BME280;41154;45.394;5.734;2022-10-13T06:50:08;97526.84;;;9.16;100.00
55289;BME280;41154;45.394;5.734;2022-10-13T06:52:34;97525.06;;;9.41;100.00
55289;BME280;41154;45.394;5.734;2022-10-13T06:54:59;97530.19;;;9.42;100.00
55289;BME280;41154;45.394;5.734;2022-10-13T06:57:27;97529.59;;;9.52;100.00
55289;BME280;41154;45.394;5.734;2022-10-13T06:59:56;97537.50;;;9.35;100.00
55289;BME280;41154;45.394;5.734;2022-10-13T07:02:22;97535.41;;;9.37;100.00
55289;BME280;41154;45.394;5.734;2022-10-13T07:04:47;97536.94;;;9.45;100.00
55289;BME280;41154;45.394;5.734;2022-10-13T07:07:13;97541.53;;;9.68;100.00
55289;BME280;41154;45.394;5.734;2022-10-13T07:09:39;97541.31;;;9.93;100.00
55289;BME280;41154;45.394;5.734;2022-10-13T07:12:05;97536.78;;;9.94;100.00
55289;BME280;41154;45.394;5.734;2022-10-13T07:14:32;97544.00;;;9.93;100.00
55289;BME280;41154;45.394;5.734;2022-10-13T07:16:58;97541.56;;;10.15;100.00
55289;BME280;41154;45.394;5.734;2022-10-13T07:19:24;97544.44;;;10.02;100.00
55289;BME280;41154;45.394;5.734;2022-10-13T07:21:50;97539.91;;;10.14;100.00
55289;BME280;41154;45.394;5.734;2022-10-13T07:24:16;97542.25;;;10.22;100.00
55289;BME280;41154;45.394;5.734;2022-10-13T07:26:42;97540.75;;;10.15;100.00
55289;BME280;41154;45.394;5.734;2022-10-13T07:29:08;97534.09;;;10.29;100.00
55289;BME280;41154;45.394;5.734;2022-10-13T07:31:34;97525.69;;;10.49;100.00
55289;BME280;41154;45.394;5.734;2022-10-13T07:34:00;97529.34;;;10.72;100.00
55289;BME280;41154;45.394;5.734;2022-10-13T07:36:26;97528.47;;;10.66;100.00
55289;BME280;41154;45.394;5.734;2022-10-13T07:38:52;97529.13;;;10.73;100.00
55289;BME280;41154;45.394;5.734;2022-10-13T07:41:18;97528.16;;;10.79;100.00
55289;BME280;41154;45.394;5.734;2022-10-13T07:43:44;97526.16;;;11.44;100.00
55289;BME280;41154;45.394;5.734;2022-10-13T07:46:12;97524.25;;;11.28;100.00
55289;BME280;41154;45.394;5.734;2022-10-13T07:48:38;97522.31;;;10.83;100.00
55289;BME280;41154;45.394;5.734;2022-10-13T07:51:06;97516.41;;;10.81;100.00
55289;BME280;41154;45.394;5.734;2022-10-13T07:53:32;97515.66;;;10.97;100.00
55289;BME280;41154;45.394;5.734;2022-10-13T07:56:04;97508.94;;;11.11;100.00
55289;BME280;41154;45.394;5.734;2022-10-13T07:58:31;97506.13;;;11.35;100.00
55289;BME280;41154;45.394;5.734;2022-10-13T08:00:58;97512.28;;;11.36;100.00
55289;BME280;41154;45.394;5.734;2022-10-13T08:03:25;97513.69;;;11.38;100.00
55289;BME280;41154;45.394;5.734;2022-10-13T08:05:51;97520.06;;;11.20;100.00
55289;BME280;41154;45.394;5.734;2022-10-13T08:08:17;97512.91;;;11.55;100.00
55289;BME280;41154;45.394;5.734;2022-10-13T08:10:43;97518.50;;;11.70;100.00
55289;BME280;41154;45.394;5.734;2022-10-13T08:13:10;97514.44;;;11.84;100.00
55289;BME280;41154;45.394;5.734;2022-10-13T08:15:40;97516.81;;;11.98;100.00
55289;BME280;41154;45.394;5.734;2022-10-13T08:18:06;97518.84;;;12.08;100.00
55289;BME280;41154;45.394;5.734;2022-10-13T08:20:32;97516.81;;;12.37;100.00
55289;BME280;41154;45.394;5.734;2022-10-13T08:22:58;97526.13;;;12.29;100.00
55289;BME280;41154;45.394;5.734;2022-10-13T08:25:24;97513.63;;;12.40;100.00
55289;BME280;41154;45.394;5.734;2022-10-13T08:27:50;97521.91;;;12.16;100.00
55289;BME280;41154;45.394;5.734;2022-10-13T08:30:16;97526.97;;;12.30;100.00
55289;BME280;41154;45.394;5.734;2022-10-13T08:32:42;97528.56;;;12.31;100.00
55289;BME280;41154;45.394;5.734;2022-10-13T08:35:09;97525.69;;;12.54;100.00
55289;BME280;41154;45.394;5.734;2022-10-13T08:37:35;97530.06;;;12.21;100.00
55289;BME280;41154;45.394;5.734;2022-10-13T08:40:01;97520.41;;;12.43;100.00
55289;BME280;41154;45.394;5.734;2022-10-13T08:42:26;97530.22;;;12.76;100.00
55289;BME280;41154;45.394;5.734;2022-10-13T08:45:01;97533.13;;;13.41;100.00
55289;BME280;41154;45.394;5.734;2022-10-13T08:47:53;97536.88;;;14.05;100.00
55289;BME280;41154;45.394;5.734;2022-10-13T08:50:26;97532.59;;;14.09;100.00
55289;BME280;41154;45.394;5.734;2022-10-13T08:52:59;97531.91;;;14.82;100.00
55289;BME280;41154;45.394;5.734;2022-10-13T08:55:29;97529.41;;;15.54;100.00
55289;BME280;41154;45.394;5.734;2022-10-13T08:57:57;97527.63;;;14.38;100.00
55289;BME280;41154;45.394;5.734;2022-10-13T09:00:25;97522.72;;;14.25;100.00
55289;BME280;41154;45.394;5.734;2022-10-13T09:02:52;97515.03;;;13.69;100.00
55289;BME280;41154;45.394;5.734;2022-10-13T09:05:32;97521.56;;;13.45;100.00
55289;BME280;41154;45.394;5.734;2022-10-13T09:08:04;97518.78;;;14.00;100.00
55289;BME280;41154;45.394;5.734;2022-10-13T09:10:46;97527.97;;;15.20;100.00
55289;BME280;41154;45.394;5.734;2022-10-13T09:13:16;97526.16;;;15.57;100.00
55289;BME280;41154;45.394;5.734;2022-10-13T09:15:44;97526.94;;;15.42;100.00
55289;BME280;41154;45.394;5.734;2022-10-13T09:18:11;97528.00;;;15.36;100.00
55289;BME280;41154;45.394;5.734;2022-10-13T09:20:38;97522.91;;;15.44;100.00
55289;BME280;41154;45.394;5.734;2022-10-13T09:23:16;97522.03;;;14.50;100.00
55289;BME280;41154;45.394;5.734;2022-10-13T09:25:45;97518.91;;;14.63;100.00
55289;BME280;41154;45.394;5.734;2022-10-13T09:30:45;97519.53;;;14.91;100.00
55289;BME280;41154;45.394;5.734;2022-10-13T09:35:45;97515.78;;;15.02;100.00
55289;BME280;41154;45.394;5.734;2022-10-13T09:38:18;97512.56;;;15.10;100.00
55289;BME280;41154;45.394;5.734;2022-10-13T09:41:00;97509.31;;;15.14;100.00
55289;BME280;41154;45.394;5.734;2022-10-13T09:43:39;97498.53;;;15.39;100.00
55289;BME280;41154;45.394;5.734;2022-10-13T09:46:29;97488.31;;;15.57;100.00
55289;BME280;41154;45.394;5.734;2022-10-13T09:49:20;97478.88;;;15.80;100.00
55289;BME280;41154;45.394;5.734;2022-10-13T09:51:49;97471.78;;;15.53;100.00
55289;BME280;41154;45.394;5.734;2022-10-13T09:54:36;97485.06;;;15.65;100.00
55289;BME280;41154;45.394;5.734;2022-10-13T09:59:51;97489.91;;;15.37;100.00
55289;BME280;41154;45.394;5.734;2022-10-13T10:02:22;97490.47;;;15.44;100.00
55289;BME280;41154;45.394;5.734;2022-10-13T10:04:49;97488.31;;;15.57;100.00
55289;BME280;41154;45.394;5.734;2022-10-13T10:07:20;97485.88;;;15.76;100.00
55289;BME280;41154;45.394;5.734;2022-10-13T10:09:50;97489.94;;;15.89;100.00
55289;BME280;41154;45.394;5.734;2022-10-13T10:12:21;97489.97;;;15.78;100.00
55289;BME280;41154;45.394;5.734;2022-10-13T10:14:47;97488.81;;;16.00;100.00
55289;BME280;41154;45.394;5.734;2022-10-13T10:24:58;97485.50;;;16.34;100.00
55289;BME280;41154;45.394;5.734;2022-10-13T10:27:30;97479.69;;;16.77;100.00
55289;BME280;41154;45.394;5.734;2022-10-13T10:30:14;97479.25;;;17.49;100.00
55289;BME280;41154;45.394;5.734;2022-10-13T10:35:54;97472.09;;;17.63;100.00
55289;BME280;41154;45.394;5.734;2022-10-13T10:41:11;97462.00;;;16.95;100.00
55289;BME280;41154;45.394;5.734;2022-10-13T10:46:24;97455.03;;;16.73;100.00
55289;BME280;41154;45.394;5.734;2022-10-13T10:48:57;97454.13;;;16.28;100.00
55289;BME280;41154;45.394;5.734;2022-10-13T10:51:29;97456.09;;;16.07;100.00
55289;BME280;41154;45.394;5.734;2022-10-13T10:54:22;97453.06;;;16.18;100.00
55289;BME280;41154;45.394;5.734;2022-10-13T10:57:22;97449.91;;;15.80;100.00
55289;BME280;41154;45.394;5.734;2022-10-13T11:05:02;97471.50;;;16.11;100.00
55289;BME280;41154;45.394;5.734;2022-10-13T11:15:10;97446.31;;;17.95;100.00
55289;BME280;41154;45.394;5.734;2022-10-13T11:17:41;97450.28;;;18.08;100.00
55289;BME280;41154;45.394;5.734;2022-10-13T11:25:43;97447.75;;;17.87;100.00
55289;BME280;41154;45.394;5.734;2022-10-13T11:30:55;97447.97;;;18.63;100.00
55289;BME280;41154;45.394;5.734;2022-10-13T11:53:21;97433.69;;;19.53;100.00
55289;BME280;41154;45.394;5.734;2022-10-13T11:55:49;97431.63;;;19.45;100.00
55289;BME280;41154;45.394;5.734;2022-10-13T11:58:25;97429.47;;;19.61;100.00
55289;BME280;41154;45.394;5.734;2022-10-13T12:01:06;97424.72;;;19.85;100.00
55289;BME280;41154;45.394;5.734;2022-10-13T12:03:42;97423.66;;;18.96;100.00
55289;BME280;41154;45.394;5.734;2022-10-13T12:06:24;97412.84;;;19.29;100.00
55289;BME280;41154;45.394;5.734;2022-10-13T12:08:56;97416.41;;;18.92;100.00
55289;BME280;41154;45.394;5.734;2022-10-13T12:11:27;97417.97;;;19.31;100.00
55289;BME280;41154;45.394;5.734;2022-10-13T12:13:54;97410.47;;;19.55;100.00
55289;BME280;41154;45.394;5.734;2022-10-13T12:16:21;97400.59;;;19.46;100.00
55289;BME280;41154;45.394;5.734;2022-10-13T12:18:49;97410.69;;;19.45;100.00
55289;BME280;41154;45.394;5.734;2022-10-13T12:21:20;97406.06;;;19.60;100.00
55289;BME280;41154;45.394;5.734;2022-10-13T12:23:48;97389.66;;;19.65;100.00
55289;BME280;41154;45.394;5.734;2022-10-13T12:26:19;97384.03;;;19.28;100.00
55289;BME280;41154;45.394;5.734;2022-10-13T12:31:27;97381.16;;;19.85;95.58
55289;BME280;41154;45.394;5.734;2022-10-13T12:34:03;97371.88;;;20.28;94.16
55289;BME280;41154;45.394;5.734;2022-10-13T12:36:33;97363.81;;;20.23;92.01
55289;BME280;41154;45.394;5.734;2022-10-13T12:39:05;97355.03;;;20.26;92.25
55289;BME280;41154;45.394;5.734;2022-10-13T12:41:35;97367.25;;;19.87;95.29
55289;BME280;41154;45.394;5.734;2022-10-13T12:44:03;97372.09;;;19.24;97.30
55289;BME280;41154;45.394;5.734;2022-10-13T12:46:52;97362.94;;;19.20;96.55
55289;BME280;41154;45.394;5.734;2022-10-13T12:49:32;97354.50;;;19.02;100.00
55289;BME280;41154;45.394;5.734;2022-10-13T12:54:35;97352.53;;;18.70;100.00
55289;BME280;41154;45.394;5.734;2022-10-13T12:57:06;97351.88;;;18.78;100.00
55289;BME280;41154;45.394;5.734;2022-10-13T12:59:41;97357.97;;;18.70;100.00
55289;BME280;41154;45.394;5.734;2022-10-13T13:02:21;97357.31;;;18.97;100.00
55289;BME280;41154;45.394;5.734;2022-10-13T13:04:49;97364.03;;;19.52;100.00
55289;BME280;41154;45.394;5.734;2022-10-13T13:12:29;97366.84;;;18.76;100.00
55289;BME280;41154;45.394;5.734;2022-10-13T13:14:57;97381.56;;;18.75;100.00
55289;BME280;41154;45.394;5.734;2022-10-13T13:17:28;97376.31;;;18.78;100.00
55289;BME280;41154;45.394;5.734;2022-10-13T13:19:54;97374.13;;;18.61;100.00
55289;BME280;41154;45.394;5.734;2022-10-13T13:22:22;97369.84;;;18.74;100.00
55289;BME280;41154;45.394;5.734;2022-10-13T13:24:51;97374.28;;;18.70;100.00
55289;BME280;41154;45.394;5.734;2022-10-13T13:27:22;97371.41;;;18.80;100.00
55289;BME280;41154;45.394;5.734;2022-10-13T13:29:48;97370.03;;;19.35;99.85
55289;BME280;41154;45.394;5.734;2022-10-13T13:32:16;97374.56;;;19.39;99.42
55289;BME280;41154;45.394;5.734;2022-10-13T13:34:42;97356.22;;;19.31;100.00
55289;BME280;41154;45.394;5.734;2022-10-13T13:37:36;97367.97;;;18.94;100.00
55289;BME280;41154;45.394;5.734;2022-10-13T13:40:04;97357.00;;;18.61;100.00
55289;BME280;41154;45.394;5.734;2022-10-13T13:42:30;97349.75;;;18.56;100.00
55289;BME280;41154;45.394;5.734;2022-10-13T13:44:56;97333.72;;;18.74;100.00
55289;BME280;41154;45.394;5.734;2022-10-13T13:47:24;97330.88;;;18.84;100.00
55289;BME280;41154;45.394;5.734;2022-10-13T13:49:53;97331.84;;;18.93;100.00
55289;BME280;41154;45.394;5.734;2022-10-13T13:52:19;97322.91;;;19.07;100.00
55289;BME280;41154;45.394;5.734;2022-10-13T13:54:46;97317.28;;;19.03;100.00
55289;BME280;41154;45.394;5.734;2022-10-13T13:57:13;97320.09;;;19.12;100.00
55289;BME280;41154;45.394;5.734;2022-10-13T13:59:40;97307.59;;;18.97;100.00
55289;BME280;41154;45.394;5.734;2022-10-13T14:02:14;97313.72;;;19.02;100.00
55289;BME280;41154;45.394;5.734;2022-10-13T14:04:40;97306.09;;;19.04;100.00
55289;BME280;41154;45.394;5.734;2022-10-13T14:07:06;97307.38;;;19.26;100.00
55289;BME280;41154;45.394;5.734;2022-10-13T14:09:32;97298.31;;;19.31;100.00
55289;BME280;41154;45.394;5.734;2022-10-13T14:11:57;97300.13;;;19.02;100.00
55289;BME280;41154;45.394;5.734;2022-10-13T14:14:23;97295.19;;;18.91;100.00
55289;BME280;41154;45.394;5.734;2022-10-13T14:16:49;97285.63;;;18.93;100.00
55289;BME280;41154;45.394;5.734;2022-10-13T14:19:15;97279.00;;;19.13;100.00
55289;BME280;41154;45.394;5.734;2022-10-13T14:21:41;97279.25;;;18.27;100.00
55289;BME280;41154;45.394;5.734;2022-10-13T14:24:09;97297.22;;;18.23;100.00
55289;BME280;41154;45.394;5.734;2022-10-13T14:26:35;97306.41;;;18.08;100.00
55289;BME280;41154;45.394;5.734;2022-10-13T14:29:01;97299.13;;;18.03;100.00
55289;BME280;41154;45.394;5.734;2022-10-13T14:31:26;97294.41;;;18.09;100.00
55289;BME280;41154;45.394;5.734;2022-10-13T14:33:53;97289.22;;;18.50;100.00
55289;BME280;41154;45.394;5.734;2022-10-13T14:36:19;97292.75;;;18.89;100.00
55289;BME280;41154;45.394;5.734;2022-10-13T14:38:44;97289.38;;;19.11;100.00
55289;BME280;41154;45.394;5.734;2022-10-13T14:41:10;97292.97;;;18.74;100.00
55289;BME280;41154;45.394;5.734;2022-10-13T14:43:36;97309.13;;;18.46;100.00
55289;BME280;41154;45.394;5.734;2022-10-13T14:46:05;97310.59;;;18.57;100.00